Time;durP1;ratioP1;P1;durP2;ratioP2;P2;SDS_P1;SDS_P2;PMS_P1;PMS_P2;Temp;Humidity;BMP_temperature;BMP_pressure;BME280_temperature;BME280_humidity;BME280_pressure;Samples;Min_cycle;Max_cycle;Signal;HPM_P1;HPM_P2
2021/05/05 00:01:22;;;;;;;5.55;1.95;;;13.00;99.90;;;12.39;75.33;100034.94;4986502;28;20034;-52
2021/05/05 00:03:48;;;;;;;5.20;1.40;;;13.00;99.90;;;12.37;75.40;100031.69;4988592;28;20136;-48
2021/05/05 00:06:16;;;;;;;7.72;2.38;;;12.90;99.90;;;12.35;75.32;100025.81;4988368;28;20042;-49
2021/05/05 00:08:42;;;;;;;5.18;2.33;;;12.90;99.90;;;12.30;75.50;100033.31;4988268;28;20034;-51
2021/05/05 00:11:08;;;;;;;5.57;1.70;;;12.80;99.90;;;12.30;75.79;100028.09;4986890;28;20058;-52
2021/05/05 00:13:35;;;;;;;4.80;1.60;;;12.80;99.90;;;12.24;75.66;100020.94;4988248;28;20033;-53
2021/05/05 00:16:02;;;;;;;7.28;1.85;;;12.80;99.90;;;12.18;75.52;100019.00;4988068;28;20092;-53
2021/05/05 00:18:28;;;;;;;10.25;2.42;;;12.70;99.90;;;12.18;75.44;100008.56;4989951;28;20096;-51
2021/05/05 00:20:54;;;;;;;8.48;1.55;;;12.70;99.90;;;12.16;75.41;100011.31;4992248;28;20030;-53
2021/05/05 00:23:20;;;;;;;6.03;1.98;;;12.70;99.90;;;12.14;74.95;99997.63;4992584;28;20042;-50
2021/05/05 00:25:46;;;;;;;4.20;1.38;;;12.70;99.90;;;12.14;74.83;100002.84;4992296;28;20034;-52
2021/05/05 00:28:12;;;;;;;5.22;1.60;;;12.70;99.90;;;12.15;74.46;99994.03;4992271;28;20046;-51
2021/05/05 00:30:38;;;;;;;8.35;1.80;;;12.70;99.90;;;12.12;74.28;99986.53;4992021;28;20447;-52
2021/05/05 00:33:04;;;;;;;6.47;1.48;;;12.70;99.90;;;12.10;74.21;99974.63;4992177;28;20046;-54
2021/05/05 00:35:30;;;;;;;5.82;1.33;;;12.60;99.90;;;12.06;73.92;99974.13;4991870;28;20097;-51
2021/05/05 00:37:56;;;;;;;4.40;1.77;;;12.60;99.90;;;12.02;73.90;99977.22;4991604;28;20034;-53
2021/05/05 00:40:22;;;;;;;9.48;2.05;;;12.60;99.90;;;11.93;74.18;99963.38;4991643;28;20035;-54
2021/05/05 00:42:48;;;;;;;7.43;1.75;;;12.50;99.90;;;11.86;74.38;99963.22;4991567;28;20058;-53
2021/05/05 00:45:15;;;;;;;9.88;2.03;;;12.40;99.90;;;11.77;74.85;99955.56;4991731;28;20053;-51
2021/05/05 00:47:42;;;;;;;3.10;1.30;;;12.30;99.90;;;11.73;75.01;99962.06;4991707;28;20421;-51
2021/05/05 00:50:13;;;;;;;5.93;1.48;;;12.30;99.90;;;11.70;75.27;99963.22;4989959;28;20034;-52
2021/05/05 00:52:39;;;;;;;4.65;1.60;;;12.20;99.90;;;11.68;75.12;99965.16;4991365;28;20437;-49
2021/05/05 00:55:07;;;;;;;4.13;1.48;;;12.20;99.90;;;11.67;75.11;99960.13;4991629;28;20073;-52
2021/05/05 00:57:34;;;;;;;6.40;1.30;;;12.20;99.90;;;11.68;75.33;99959.13;4991272;28;20121;-51
2021/05/05 00:59:59;;;;;;;6.70;1.45;;;12.20;99.90;;;11.64;75.41;99963.88;4990028;28;20154;-50
2021/05/05 01:02:26;;;;;;;5.00;1.17;;;12.20;99.90;;;11.62;75.58;99956.19;4990666;28;20101;-48
2021/05/05 01:04:52;;;;;;;5.45;1.05;;;12.20;99.90;;;11.60;75.65;99946.91;4991335;28;20401;-51
2021/05/05 01:07:18;;;;;;;3.58;1.48;;;12.10;99.90;;;11.51;76.03;99953.09;4991363;28;20105;-48
2021/05/05 01:09:46;;;;;;;9.13;1.48;;;12.10;99.90;;;11.47;76.15;99943.97;4990984;28;20046;-51
2021/05/05 01:12:14;;;;;;;7.00;1.70;;;12.10;99.90;;;11.42;76.51;99947.06;4991158;28;20034;-52
2021/05/05 01:14:40;;;;;;;3.35;1.30;;;12.00;99.90;;;11.43;76.28;99940.03;4991087;28;20034;-50
2021/05/05 01:17:08;;;;;;;3.92;1.50;;;12.00;99.90;;;11.36;76.75;99939.88;4991051;28;20098;-53
2021/05/05 01:19:35;;;;;;;7.18;2.38;;;11.90;99.90;;;11.24;77.87;99946.41;4990981;28;20365;-52
2021/05/05 01:22:03;;;;;;;4.68;1.15;;;11.90;99.90;;;11.18;78.08;99939.22;4990686;28;20125;-51
2021/05/05 01:24:32;;;;;;;5.38;1.13;;;11.80;99.90;;;11.14;78.35;99943.13;4991054;28;20026;-52
2021/05/05 01:26:57;;;;;;;3.92;1.65;;;11.80;99.90;;;11.10;78.29;99949.63;4990849;28;20108;-50
2021/05/05 01:29:23;;;;;;;5.85;1.63;;;11.70;99.90;;;11.05;78.39;99944.09;4989954;28;20027;-50
2021/05/05 01:31:49;;;;;;;3.22;1.80;;;11.70;99.90;;;11.01;78.53;99940.16;4990977;28;20524;-49
2021/05/05 01:34:15;;;;;;;7.10;1.60;;;11.60;99.90;;;10.95;78.44;99941.63;4990496;28;20065;-49
2021/05/05 01:36:43;;;;;;;5.55;1.50;;;11.50;99.90;;;10.94;78.91;99938.19;4989339;28;20121;-50
2021/05/05 01:39:16;;;;;;;6.78;1.52;;;11.50;99.90;;;10.95;78.73;99937.22;4990480;28;20482;-49
2021/05/05 01:41:43;;;;;;;2.40;1.17;;;11.50;99.90;;;10.92;78.60;99940.13;4990348;28;20034;-51
2021/05/05 01:44:39;;;;;;;5.60;2.10;;;11.40;99.90;;;10.91;79.65;99935.09;4988503;28;20430;-48
2021/05/05 01:47:11;;;;;;;7.85;1.52;;;11.40;99.90;;;10.88;79.12;99935.41;4990477;28;20049;-46
2021/05/05 01:49:47;;;;;;;7.75;1.90;;;11.40;99.90;;;10.84;79.75;99932.31;4990527;28;20030;-50
2021/05/05 01:52:15;;;;;;;3.80;2.00;;;11.40;99.90;;;10.85;79.22;99927.94;4990545;28;20134;-53
2021/05/05 01:54:42;;;;;;;5.63;1.40;;;11.40;99.90;;;10.87;78.92;99926.75;4990480;28;20109;-49
2021/05/05 01:57:32;;;;;;;7.47;2.03;;;11.40;99.90;;;10.89;79.76;99930.03;4990187;28;20137;-48
2021/05/05 02:00:01;;;;;;;5.22;1.67;;;11.40;99.90;;;10.88;78.91;99923.19;4990063;28;20101;-50
2021/05/05 02:02:28;;;;;;;5.28;1.92;;;11.40;99.90;;;10.90;78.75;99923.84;4989490;28;20129;-47
2021/05/05 02:04:55;;;;;;;4.93;1.65;;;11.40;99.90;;;10.85;79.04;99925.31;4970780;28;20034;-46
2021/05/05 02:07:21;;;;;;;6.32;1.63;;;11.40;99.90;;;10.82;79.09;99916.03;4970894;28;20110;-48
2021/05/05 02:09:47;;;;;;;5.93;1.88;;;11.30;99.90;;;10.82;79.14;99929.06;4970316;28;20391;-47
2021/05/05 02:12:15;;;;;;;9.15;1.52;;;11.30;99.90;;;10.80;79.30;99917.97;4970518;28;20078;-49
2021/05/05 02:14:42;;;;;;;6.00;1.90;;;11.30;99.90;;;10.78;79.74;99921.72;4970834;28;20069;-50
2021/05/05 02:17:09;;;;;;;5.38;1.63;;;11.30;99.90;;;10.77;79.63;99912.28;4970664;28;20054;-47
2021/05/05 02:19:35;;;;;;;7.57;1.63;;;11.30;99.90;;;10.72;79.73;99909.31;4970302;28;20027;-49
2021/05/05 02:22:00;;;;;;;4.35;1.52;;;11.30;99.90;;;10.72;79.68;99904.94;4970459;28;20433;-50
2021/05/05 02:24:26;;;;;;;6.05;2.00;;;11.30;99.90;;;10.68;79.89;99895.78;4970022;28;20034;-49
2021/05/05 02:26:52;;;;;;;3.13;1.63;;;11.20;99.90;;;10.66;79.88;99895.13;4969124;28;20035;-46
2021/05/05 02:29:18;;;;;;;3.85;1.80;;;11.20;99.90;;;10.66;79.99;99894.31;4970350;28;20042;-48
2021/05/05 02:31:44;;;;;;;6.82;2.20;;;11.20;99.90;;;10.61;80.00;99898.22;4970295;28;20125;-51
2021/05/05 02:34:11;;;;;;;3.95;1.20;;;11.20;99.90;;;10.59;80.15;99886.31;4970381;28;20414;-50
2021/05/05 02:36:38;;;;;;;11.10;1.83;;;11.20;99.90;;;10.57;80.77;99880.44;4969913;28;20514;-50
2021/05/05 02:39:07;;;;;;;5.93;1.45;;;11.10;99.90;;;10.58;80.69;99876.88;4970261;28;20146;-48
2021/05/05 02:43:58;;;;;;;5.85;1.95;;;11.10;99.90;;;10.57;80.64;99872.63;4867375;22;20054;-52
2021/05/05 02:46:24;;;;;;;9.77;1.65;;;11.10;99.90;;;10.60;80.50;99874.94;4989548;28;20037;-49
2021/05/05 02:48:50;;;;;;;5.85;1.70;;;11.10;99.90;;;10.58;80.62;99866.44;4989458;28;20038;-49
2021/05/05 02:51:16;;;;;;;2.90;1.40;;;11.10;99.90;;;10.58;80.89;99869.06;4989385;28;20034;-51
2021/05/05 02:53:42;;;;;;;4.68;1.60;;;11.10;99.90;;;10.56;80.79;99863.19;4989495;28;20088;-51
2021/05/05 02:56:08;;;;;;;8.50;1.45;;;11.10;99.90;;;10.49;81.10;99862.19;4989426;28;20077;-50
2021/05/05 02:58:34;;;;;;;4.97;1.83;;;11.10;99.90;;;10.45;81.33;99858.28;4989746;28;20041;-50
2021/05/05 03:01:00;;;;;;;6.55;2.00;;;11.00;99.90;;;10.44;81.44;99859.25;4989344;28;20034;-50
2021/05/05 03:03:25;;;;;;;8.07;2.15;;;11.00;99.90;;;10.42;81.52;99861.19;4989838;28;20125;-47
2021/05/05 03:05:51;;;;;;;4.40;1.45;;;11.00;99.90;;;10.42;81.63;99863.78;4989593;28;20125;-48
2021/05/05 03:08:18;;;;;;;9.77;1.65;;;11.00;99.90;;;10.44;81.60;99861.84;4989754;28;20046;-51
2021/05/05 03:10:45;;;;;;;5.90;1.67;;;11.00;99.90;;;10.42;81.72;99854.19;4989616;28;20038;-51
2021/05/05 03:13:11;;;;;;;4.93;1.70;;;10.90;99.90;;;10.45;81.82;99861.69;4989381;28;20045;-49
2021/05/05 03:15:37;;;;;;;3.50;2.25;;;11.00;99.90;;;10.46;81.71;99854.69;4989613;28;20482;-51
2021/05/05 03:18:04;;;;;;;7.00;2.47;;;11.00;99.90;;;10.48;81.73;99861.38;4989767;28;20307;-46
2021/05/05 03:20:30;;;;;;;9.55;2.22;;;11.00;99.90;;;10.48;81.56;99856.16;4989465;28;20034;-50
2021/05/05 03:22:56;;;;;;;7.50;2.08;;;11.00;99.90;;;10.50;81.65;99856.00;4989370;28;20513;-51
2021/05/05 03:25:23;;;;;;;8.02;2.42;;;11.00;99.90;;;10.41;81.74;99852.56;4989565;28;20109;-44
2021/05/05 03:27:49;;;;;;;6.47;2.13;;;10.90;99.90;;;10.39;81.82;99858.94;4989140;28;20109;-51
2021/05/05 03:30:16;;;;;;;6.82;2.65;;;10.90;99.90;;;10.38;81.80;99859.91;4989155;28;20113;-51
2021/05/05 03:32:41;;;;;;;7.85;2.22;;;10.90;99.90;;;10.35;81.92;99855.00;4989154;28;20114;-50
2021/05/05 03:35:09;;;;;;;4.55;1.73;;;10.90;99.90;;;10.33;82.30;99860.38;4989458;28;20050;-49
2021/05/05 03:37:36;;;;;;;4.13;1.67;;;10.90;99.90;;;10.27;82.16;99861.81;4987658;28;20034;-48
2021/05/05 03:40:07;;;;;;;8.10;1.77;;;10.80;99.90;;;10.27;82.12;99859.22;4988973;28;20050;-53
2021/05/05 03:42:34;;;;;;;5.45;1.98;;;10.80;99.90;;;10.26;82.44;99852.38;4988836;28;20101;-50
2021/05/05 03:45:02;;;;;;;8.73;2.22;;;10.80;99.90;;;10.26;82.31;99841.97;4989265;28;20033;-48
2021/05/05 03:47:28;;;;;;;5.90;2.10;;;10.80;99.90;;;10.30;82.26;99848.47;4989181;28;20042;-51
2021/05/05 03:49:54;;;;;;;6.18;1.73;;;10.80;99.90;;;10.30;82.29;99858.91;4989172;28;20437;-51
2021/05/05 03:52:20;;;;;;;7.55;2.55;;;10.80;99.90;;;10.32;82.25;99860.53;4988959;28;20054;-49
2021/05/05 03:54:46;;;;;;;5.78;1.50;;;10.90;99.90;;;10.32;82.01;99850.94;4988810;28;20448;-49
2021/05/05 03:57:12;;;;;;;5.78;1.65;;;10.90;99.90;;;10.32;82.17;99848.31;4988691;28;20515;-50
2021/05/05 03:59:38;;;;;;;6.90;2.33;;;10.90;99.90;;;10.33;81.99;99849.97;4989170;28;20041;-49
2021/05/05 04:02:04;;;;;;;9.50;2.22;;;10.80;99.90;;;10.33;82.03;99854.34;4988946;28;20035;-51
2021/05/05 04:04:30;;;;;;;12.27;2.70;;;10.80;99.90;;;10.34;81.94;99851.59;4988963;28;20042;-50
2021/05/05 04:06:56;;;;;;;10.23;2.47;;;10.90;99.90;;;10.34;82.24;99851.59;4988800;28;20038;-46
2021/05/05 04:09:24;;;;;;;7.63;2.03;;;10.90;99.90;;;10.41;82.10;99851.75;4987137;28;20442;-45
2021/05/05 04:11:50;;;;;;;6.70;2.17;;;11.00;99.90;;;10.50;81.60;99853.41;4989029;28;20041;-47
2021/05/05 04:14:16;;;;;;;5.63;1.73;;;11.10;99.90;;;10.66;81.45;99858.66;4988975;28;20085;-53
2021/05/05 04:16:42;;;;;;;8.27;2.55;;;11.20;99.90;;;10.80;80.96;99860.66;4989100;28;20059;-50
2021/05/05 04:19:08;;;;;;;5.60;2.00;;;11.30;99.90;;;10.91;80.61;99860.31;4988958;28;20045;-45
2021/05/05 04:21:35;;;;;;;6.22;2.20;;;11.50;99.90;;;11.05;80.24;99864.09;4988802;28;20389;-47
2021/05/05 04:24:00;;;;;;;7.07;2.10;;;11.60;99.90;;;11.70;78.90;99864.06;4988439;28;20053;-46
2021/05/05 04:26:27;;;;;;;5.40;1.75;;;12.30;99.90;;;12.45;76.53;99855.81;4988645;28;20038;-49
2021/05/05 04:28:53;;;;;;;7.70;2.88;;;13.20;99.90;;;12.81;75.04;99862.13;4988597;28;20027;-54
2021/05/05 04:31:19;;;;;;;4.32;1.50;;;13.90;99.90;;;13.39;73.69;99862.53;4988756;28;20026;-52
2021/05/05 04:33:46;;;;;;;4.50;1.55;;;14.50;99.90;;;14.09;71.03;99862.94;4988513;28;20030;-53
2021/05/05 04:36:13;;;;;;;3.95;1.40;;;15.30;99.90;;;14.52;69.50;99863.09;4988434;28;20581;-50
2021/05/05 04:38:40;;;;;;;4.60;1.35;;;15.80;99.90;;;15.00;68.00;99860.75;4987079;28;20104;-50
2021/05/05 04:41:06;;;;;;;5.30;1.50;;;16.30;99.90;;;14.87;68.17;99866.69;4988441;28;20109;-55
2021/05/05 04:43:32;;;;;;;5.05;1.55;;;16.40;99.90;;;14.72;68.10;99864.09;4988262;28;20062;-54
2021/05/05 04:45:58;;;;;;;6.45;1.63;;;16.20;99.90;;;14.18;69.27;99869.69;4988569;28;20030;-48
2021/05/05 04:48:24;;;;;;;4.20;1.77;;;15.50;99.90;;;13.74;70.75;99871.50;4987033;28;20205;-48
2021/05/05 04:50:50;;;;;;;3.58;1.77;;;14.90;99.90;;;13.55;71.38;99872.84;4988654;28;20161;-44
2021/05/05 04:53:16;;;;;;;4.15;1.70;;;14.50;99.90;;;13.33;71.92;99873.69;4988232;28;20557;-53
2021/05/05 04:55:42;;;;;;;6.63;1.52;;;14.20;99.90;;;13.06;72.61;99880.25;4987965;28;20037;-54
2021/05/05 04:58:08;;;;;;;8.48;1.45;;;13.90;99.90;;;12.95;73.15;99871.81;4987542;28;20046;-53
2021/05/05 05:00:34;;;;;;;8.82;1.95;;;13.80;99.90;;;12.72;73.89;99881.47;4987792;28;20037;-49
2021/05/05 05:03:00;;;;;;;7.25;1.58;;;13.60;99.90;;;12.61;74.02;99885.28;4987579;28;20042;-52
2021/05/05 05:05:26;;;;;;;4.28;1.33;;;13.40;99.90;;;12.58;74.25;99874.34;4989629;28;20548;-51
2021/05/05 05:07:54;;;;;;;5.55;1.02;;;13.30;99.90;;;12.65;73.80;99874.50;4991324;28;20030;-52
2021/05/05 05:10:20;;;;;;;6.32;1.40;;;13.30;99.90;;;12.96;72.81;99878.69;4991142;28;20520;-51
2021/05/05 05:12:46;;;;;;;10.15;1.40;;;13.60;99.90;;;13.49;71.68;99884.84;4991295;28;20038;-51
2021/05/05 05:15:13;;;;;;;7.90;1.77;;;14.20;99.90;;;14.21;69.10;99871.13;4991156;28;20109;-51
2021/05/05 05:17:39;;;;;;;7.22;1.20;;;15.20;99.90;;;14.44;68.33;99874.50;4991123;28;20031;-50
2021/05/05 05:20:08;;;;;;;5.55;1.33;;;15.50;99.90;;;14.35;68.05;99879.97;4990743;28;20397;-47
2021/05/05 05:22:36;;;;;;;5.40;1.10;;;15.30;99.90;;;14.75;67.63;99871.59;4990934;28;20397;-51
2021/05/05 05:25:09;;;;;;;7.05;1.50;;;15.50;99.90;;;14.86;66.54;99878.19;4990801;28;20062;-49
2021/05/05 05:27:36;;;;;;;7.15;1.38;;;15.90;99.90;;;14.59;67.19;99867.41;4990967;28;20164;-50
2021/05/05 05:30:03;;;;;;;6.80;1.00;;;15.60;99.90;;;14.28;67.79;99864.19;4990997;28;20116;-49
2021/05/05 05:32:29;;;;;;;5.55;1.08;;;15.30;99.90;;;14.40;67.64;99880.25;4990614;28;20084;-48
2021/05/05 05:34:55;;;;;;;2.50;0.70;;;15.30;99.90;;;14.69;66.73;99867.09;4990556;28;20441;-50
2021/05/05 05:37:21;;;;;;;12.52;1.10;;;15.70;99.90;;;15.22;65.71;99870.22;4990551;28;20481;-51
2021/05/05 05:39:47;;;;;;;5.78;1.05;;;16.30;99.90;;;16.10;63.03;99876.72;4990867;28;20869;-51
2021/05/05 05:42:13;;;;;;;4.63;0.70;;;17.60;98.60;;;16.30;62.50;99868.94;4990290;28;20100;-50
2021/05/05 05:44:39;;;;;;;1.65;0.65;;;17.80;98.10;;;16.50;61.31;99872.47;4990506;28;20133;-50
2021/05/05 05:47:05;;;;;;;3.40;0.63;;;18.20;94.70;;;17.07;59.82;99863.28;4990488;28;20098;-51
2021/05/05 05:49:30;;;;;;;5.93;1.15;;;18.90;92.70;;;16.84;59.84;99863.66;4990290;28;20035;-50
2021/05/05 05:51:56;;;;;;;5.22;0.98;;;18.90;90.50;;;16.97;59.42;99862.88;4990499;28;20121;-51
2021/05/05 05:54:22;;;;;;;8.30;0.95;;;18.70;90.40;;;17.54;56.91;99864.91;4990644;28;20081;-53
2021/05/05 05:56:48;;;;;;;4.32;0.68;;;19.40;85.30;;;17.62;56.59;99869.16;4988348;28;20046;-50
2021/05/05 05:59:14;;;;;;;4.78;0.95;;;19.50;83.50;;;18.14;55.30;99871.69;4983455;28;20413;-51
2021/05/05 06:01:40;;;;;;;5.80;1.17;;;20.20;80.40;;;18.51;54.53;99869.31;4986819;28;20445;-53
2021/05/05 06:04:06;;;;;;;5.22;0.68;;;20.80;76.80;;;17.76;56.03;99878.69;4988923;28;20026;-53
2021/05/05 06:06:32;;;;;;;4.32;0.70;;;19.90;78.50;;;17.72;56.24;99877.47;4989834;28;20040;-52
2021/05/05 06:08:58;;;;;;;5.15;0.57;;;19.50;80.30;;;19.06;53.46;99874.91;4989888;28;20038;-53
2021/05/05 06:11:24;;;;;;;3.83;0.55;;;21.10;76.60;;;20.80;49.16;99877.97;4989728;28;20026;-51
2021/05/05 06:13:50;;;;;;;5.07;0.70;;;23.50;67.30;;;22.22;46.71;99890.31;4990031;28;20038;-48
2021/05/05 06:16:18;;;;;;;3.72;0.82;;;25.60;60.40;;;23.02;44.18;99879.66;4989482;28;20034;-51
2021/05/05 06:18:44;;;;;;;5.35;0.70;;;27.10;55.30;;;21.76;46.46;99886.66;4989892;28;20093;-50
2021/05/05 06:21:10;;;;;;;4.47;0.55;;;25.60;54.90;;;20.40;49.91;99887.47;4989754;28;20545;-52
2021/05/05 06:23:36;;;;;;;5.88;0.50;;;23.50;60.60;;;19.98;50.83;99889.16;4989776;28;20117;-48
2021/05/05 06:26:02;;;;;;;3.88;0.60;;;22.30;63.60;;;19.67;51.42;99893.53;4989523;28;20042;-54
2021/05/05 06:28:28;;;;;;;4.57;0.85;;;21.80;65.10;;;19.18;52.53;99889.03;4989531;28;20118;-52
2021/05/05 06:30:57;;;;;;;1.50;0.40;;;21.10;67.40;;;19.93;50.89;99892.47;4989891;28;20173;-48
2021/05/05 06:33:23;;;;;;;3.45;0.65;;;21.80;67.80;;;20.67;48.80;99886.13;4989751;28;20031;-50
2021/05/05 06:35:49;;;;;;;4.63;0.82;;;23.00;62.60;;;19.83;50.53;99887.69;4989666;28;20755;-45
2021/05/05 06:38:14;;;;;;;5.13;0.60;;;22.10;64.40;;;20.47;49.17;99893.50;4989534;28;20034;-48
2021/05/05 06:40:41;;;;;;;9.82;2.38;;;22.80;63.00;;;19.93;50.08;99889.81;4989649;28;20363;-52
2021/05/05 06:43:06;;;;;;;4.57;0.63;;;22.30;63.70;;;19.48;51.25;99884.72;4989109;28;20172;-53
2021/05/05 06:45:32;;;;;;;3.85;0.70;;;21.50;66.00;;;20.18;49.78;99887.94;4989454;28;20034;-53
2021/05/05 06:47:58;;;;;;;3.78;0.60;;;22.20;64.30;;;20.32;49.44;99885.13;4989711;28;20385;-50
2021/05/05 06:50:25;;;;;;;5.05;0.70;;;22.50;63.20;;;20.30;49.64;99879.25;4988949;28;20034;-50
2021/05/05 06:52:51;;;;;;;4.03;1.00;;;22.00;65.80;;;20.99;47.85;99875.28;4989417;28;20061;-51
2021/05/05 06:55:17;;;;;;;3.28;0.85;;;23.50;61.20;;;20.73;48.42;99877.28;4989157;28;20454;-52
2021/05/05 06:57:44;;;;;;;4.32;1.17;;;23.20;61.90;;;19.89;50.63;99872.78;4989062;28;20042;-56
2021/05/05 07:00:10;;;;;;;5.55;1.13;;;21.90;65.30;;;19.13;52.51;99868.56;4988817;28;20049;-53
2021/05/05 07:02:36;;;;;;;7.35;1.17;;;20.80;68.20;;;18.68;53.70;99867.84;4989330;28;20030;-52
2021/05/05 07:05:03;;;;;;;5.90;0.80;;;20.00;71.00;;;18.43;54.73;99875.63;4988096;28;20038;-54
2021/05/05 07:07:29;;;;;;;4.45;1.02;;;19.50;73.30;;;18.22;54.83;99874.09;4988360;28;20030;-55
2021/05/05 07:09:58;;;;;;;4.60;0.90;;;19.30;74.40;;;17.85;55.76;99867.72;4988586;28;20032;-53
2021/05/05 07:12:24;;;;;;;6.07;1.45;;;18.90;76.20;;;17.43;56.69;99873.44;4988232;28;20036;-56
2021/05/05 07:14:50;;;;;;;7.25;1.27;;;18.50;77.80;;;17.47;56.93;99869.38;4981116;28;20394;-55
2021/05/05 07:17:16;;;;;;;8.23;2.00;;;18.20;79.80;;;17.67;56.73;99872.81;4987665;28;20131;-53
2021/05/05 07:19:42;;;;;;;7.03;1.98;;;18.40;81.10;;;17.53;57.16;99872.00;4988704;28;20108;-54
2021/05/05 07:22:07;;;;;;;3.83;1.70;;;18.30;82.10;;;17.12;58.23;99871.38;4988689;28;20034;-54
2021/05/05 07:24:33;;;;;;;7.97;1.98;;;18.00;83.90;;;16.99;58.81;99866.13;4987151;28;20544;-57
2021/05/05 07:26:59;;;;;;;5.35;2.03;;;17.80;86.70;;;16.94;59.18;99873.81;4988315;28;20339;-55
2021/05/05 07:29:26;;;;;;;8.95;2.67;;;17.60;88.40;;;16.96;59.24;99866.53;4988223;28;20049;-56
2021/05/05 07:31:52;;;;;;;9.65;2.55;;;17.70;90.10;;;16.94;58.84;99871.19;4989264;28;20047;-54
2021/05/05 07:34:18;;;;;;;6.18;2.90;;;17.60;90.20;;;17.07;58.48;99868.53;4989141;28;20344;-56
2021/05/05 07:36:47;;;;;;;8.88;3.08;;;17.80;90.20;;;17.27;57.88;99869.38;4988975;28;20065;-54
2021/05/05 07:47:20;;;;;;;14.40;4.50;;;18.60;86.80;;;17.73;56.27;99865.94;4989025;28;20058;-57
2021/05/05 07:49:49;;;;;;;10.35;3.75;;;18.50;87.00;;;18.15;55.19;99857.50;4989165;28;20054;-55
2021/05/05 07:52:17;;;;;;;14.38;5.07;;;18.90;86.50;;;18.49;54.85;99858.97;4984673;28;20088;-53
2021/05/05 07:54:43;;;;;;;7.90;4.38;;;18.90;86.80;;;19.13;53.07;99854.56;4979924;28;20441;-56
2021/05/05 07:57:10;;;;;;;13.98;4.78;;;19.50;85.20;;;19.53;52.63;99852.41;4979533;28;20054;-55
2021/05/05 07:59:37;;;;;;;10.98;5.60;;;19.80;84.60;;;20.03;51.14;99845.16;4980388;28;20030;-54
2021/05/05 08:02:04;;;;;;;10.77;5.70;;;20.30;82.00;;;20.54;50.28;99842.13;4986276;28;20088;-52
2021/05/05 08:04:31;;;;;;;13.30;6.28;;;20.70;80.90;;;21.18;49.01;99837.09;4968873;28;20421;-51
2021/05/05 08:06:58;;;;;;;15.60;8.15;;;21.40;79.20;;;21.31;48.76;99831.59;4975123;28;20030;-49
2021/05/05 08:09:25;;;;;;;15.98;9.13;;;21.80;76.80;;;21.22;49.09;99835.63;4988044;28;20077;-49
2021/05/05 08:11:51;;;;;;;9.25;8.07;;;21.80;76.70;;;21.19;49.18;99830.75;4988657;28;20121;-46
2021/05/05 08:14:18;;;;;;;13.10;7.95;;;21.90;75.80;;;21.04;49.85;99828.56;4988692;28;20368;-46
2021/05/05 08:16:45;;;;;;;11.77;9.10;;;21.70;75.70;;;20.15;51.53;99827.53;4988359;28;20122;-49
2021/05/05 08:19:12;;;;;;;12.15;8.93;;;21.20;75.30;;;20.08;51.77;99828.66;4988429;28;20544;-54
2021/05/05 08:21:39;;;;;;;14.85;9.07;;;20.90;77.00;;;19.83;52.43;99828.75;4988447;28;20103;-46
2021/05/05 08:24:06;;;;;;;15.90;7.88;;;20.80;77.60;;;20.05;52.17;99824.59;4987957;28;20022;-54
2021/05/05 08:26:31;;;;;;;17.45;7.47;;;20.70;78.20;;;20.54;50.68;99825.44;4988209;28;20397;-55
2021/05/05 08:28:58;;;;;;;11.50;7.50;;;21.10;77.60;;;21.44;48.64;99815.47;4986829;28;20042;-56
2021/05/05 08:31:25;;;;;;;14.23;8.05;;;21.70;76.20;;;21.63;48.02;99821.47;4988084;28;20038;-56
2021/05/05 08:33:51;;;;;;;12.07;6.63;;;22.00;74.60;;;22.16;47.05;99829.22;4987866;28;20094;-51
2021/05/05 08:36:18;;;;;;;15.27;6.40;;;22.50;72.80;;;22.34;45.52;99824.75;4988073;28;20047;-55
2021/05/05 08:38:44;;;;;;;12.77;5.63;;;22.80;69.40;;;21.84;45.86;99818.19;4988757;28;20053;-56
2021/05/05 08:41:11;;;;;;;15.25;5.95;;;22.60;68.90;;;21.79;45.94;99812.78;4991873;28;20478;-56
2021/05/05 08:43:37;;;;;;;8.57;6.22;;;22.70;67.40;;;21.90;45.48;99813.78;4990143;28;20065;-55
2021/05/05 08:46:06;;;;;;;10.23;6.35;;;22.70;66.90;;;22.09;44.87;99807.31;4991863;28;20117;-55
2021/05/05 08:48:35;;;;;;;14.98;5.65;;;22.70;66.00;;;22.59;43.84;99805.84;4991401;28;20498;-53
2021/05/05 08:51:01;;;;;;;14.93;6.32;;;23.20;65.60;;;21.96;44.35;99806.75;4991534;28;20030;-54
2021/05/05 08:53:27;;;;;;;9.80;5.32;;;23.00;64.00;;;22.18;44.30;99811.22;4991654;28;20042;-53
2021/05/05 08:55:53;;;;;;;13.45;4.93;;;22.90;64.60;;;22.20;44.12;99813.66;4989869;28;20035;-53
2021/05/05 08:58:19;;;;;;;7.68;4.90;;;23.10;63.90;;;21.88;44.46;99810.56;4991488;28;20093;-53
2021/05/05 09:00:45;;;;;;;10.38;4.63;;;22.80;63.80;;;21.72;44.67;99804.16;4991369;28;20113;-51
2021/05/05 09:03:10;;;;;;;7.97;4.45;;;22.60;64.00;;;21.28;45.68;99807.41;4991307;28;20030;-56
2021/05/05 09:05:53;;;;;;;8.55;3.78;;;22.30;65.00;;;21.02;45.72;99812.09;4991319;28;20328;-52
2021/05/05 09:08:21;;;;;;;12.50;5.13;;;21.90;65.10;;;20.60;47.76;99811.31;4991195;28;20038;-52
2021/05/05 09:11:06;;;;;;;9.57;4.97;;;21.60;67.20;;;20.54;47.24;99813.00;4991251;28;20490;-53
2021/05/05 09:13:57;;;;;;;14.07;5.05;;;21.40;67.70;;;20.94;45.75;99803.66;4991014;28;20069;-55
2021/05/05 09:16:30;;;;;;;11.75;4.25;;;21.60;66.50;;;21.08;46.15;99789.19;4991059;28;20045;-56
2021/05/05 09:19:03;;;;;;;9.02;4.15;;;21.70;67.10;;;21.76;43.96;99784.06;4991005;28;20116;-55
2021/05/05 09:21:33;;;;;;;6.50;4.07;;;22.20;65.50;;;22.62;42.93;99784.94;4990793;28;20136;-54
2021/05/05 09:24:18;;;;;;;11.65;3.65;;;22.80;65.10;;;22.27;42.17;99782.44;4990871;28;20030;-51
2021/05/05 09:26:46;;;;;;;9.02;3.65;;;23.10;62.30;;;21.96;44.17;99790.84;4991255;28;20356;-55
2021/05/05 09:29:13;;;;;;;10.45;3.83;;;22.80;63.70;;;21.40;45.22;99801.06;4989312;28;20039;-57
2021/05/05 09:31:41;;;;;;;7.32;3.58;;;22.30;64.00;;;20.85;46.03;99801.34;4990798;28;20036;-56
2021/05/05 09:34:10;;;;;;;11.27;3.50;;;21.90;64.70;;;20.55;46.72;99803.22;4991201;28;20039;-55
2021/05/05 09:36:55;;;;;;;10.70;3.30;;;21.50;65.50;;;20.44;46.96;99810.09;4990684;28;20034;-54
2021/05/05 09:39:30;;;;;;;5.25;2.70;;;21.30;66.00;;;20.11;47.53;99807.84;4990771;28;20038;-60
2021/05/05 09:41:56;;;;;;;6.47;3.38;;;21.00;66.90;;;20.16;47.47;99804.53;4990545;28;20475;-49
2021/05/05 09:44:23;;;;;;;8.52;3.72;;;21.00;66.70;;;19.95;48.02;99803.16;4990662;28;20038;-55
2021/05/05 09:46:52;;;;;;;10.88;3.90;;;20.70;67.70;;;20.20;47.64;99803.88;4990435;28;20099;-54
2021/05/05 09:49:33;;;;;;;7.85;3.65;;;20.90;68.00;;;20.34;45.89;99803.69;4990665;28;20113;-54
2021/05/05 09:52:14;;;;;;;7.97;3.40;;;21.10;66.80;;;20.49;46.67;99796.19;4990163;28;20464;-56
2021/05/05 09:54:59;;;;;;;7.57;3.00;;;21.10;66.90;;;21.24;44.85;99796.47;4990689;28;20045;-54
2021/05/05 09:57:37;;;;;;;6.72;2.88;;;21.50;65.90;;;21.38;43.37;99797.84;4983182;28;20192;-55
2021/05/05 10:00:12;;;;;;;8.43;2.85;;;22.00;63.90;;;20.90;44.76;99797.19;4985719;28;20113;-53
2021/05/05 10:02:59;;;;;;;3.67;1.70;;;21.80;63.40;;;20.86;44.84;99786.25;4989661;28;20042;-53
2021/05/05 10:05:34;;;;;;;5.07;2.28;;;21.70;63.70;;;20.99;44.93;99785.25;4990376;28;20105;-57
2021/05/05 10:08:03;;;;;;;3.15;1.75;;;21.80;63.70;;;21.25;44.20;99784.84;4990108;28;20594;-50
2021/05/05 10:10:35;;;;;;;9.32;1.88;;;21.90;63.90;;;22.16;42.69;99781.47;4990460;28;20176;-56
2021/05/05 10:13:04;;;;;;;4.93;1.25;;;22.50;63.10;;;22.31;42.45;99783.59;4990038;28;20437;-57
2021/05/05 10:15:31;;;;;;;4.03;1.27;;;22.90;62.20;;;21.69;43.56;99782.63;4990229;28;20089;-57
2021/05/05 10:17:59;;;;;;;4.60;1.08;;;22.70;62.00;;;21.26;44.52;99790.97;4988470;28;20509;-54
2021/05/05 10:20:30;;;;;;;4.15;0.90;;;22.30;62.40;;;21.16;44.69;99780.91;4986878;28;20042;-54
2021/05/05 10:23:03;;;;;;;2.25;0.80;;;22.10;62.80;;;21.63;43.90;99778.25;4986758;28;20570;-53
2021/05/05 10:25:30;;;;;;;4.07;0.80;;;22.10;63.40;;;22.99;41.82;99779.19;4989135;28;20485;-52
2021/05/05 10:27:57;;;;;;;5.03;1.00;;;23.10;62.50;;;22.34;42.83;99785.75;4988073;28;20153;-56
2021/05/05 10:30:31;;;;;;;4.00;0.82;;;23.10;61.20;;;21.86;43.12;99775.53;4987631;28;20500;-49